Time;durP1;ratioP1;P1;durP2;ratioP2;P2;SDS_P1;SDS_P2;PMS_P1;PMS_P2;Temp;Humidity;BMP_temperature;BMP_pressure;BME280_temperature;BME280_humidity;BME280_pressure;Samples;Min_cycle;Max_cycle;Signal;HPM_P1;HPM_P2
2022/12/09 00:00:55;;;;;;;14.27;9.23;;;10.20;87.80;;;;;;5053790;28;20025;-67
2022/12/09 00:03:21;;;;;;;15.88;8.80;;;10.40;87.70;;;;;;5054041;28;20450;-66
2022/12/09 00:05:46;;;;;;;11.50;10.02;;;10.40;87.70;;;;;;5053846;28;20029;-68
2022/12/09 00:08:12;;;;;;;12.50;9.68;;;10.40;87.60;;;;;;5053867;28;20021;-69
2022/12/09 00:10:37;;;;;;;15.00;11.02;;;10.30;87.60;;;;;;5054024;28;20074;-69
2022/12/09 00:13:03;;;;;;;13.93;10.98;;;10.20;87.70;;;;;;5053466;28;20037;-66
2022/12/09 00:15:28;;;;;;;15.23;10.63;;;10.20;87.80;;;;;;5053413;28;20470;-67
2022/12/09 00:17:54;;;;;;;15.25;11.25;;;10.10;87.90;;;;;;5053556;28;20033;-71
2022/12/09 00:20:19;;;;;;;15.13;10.15;;;10.10;88.10;;;;;;5053843;28;20029;-72
2022/12/09 00:22:45;;;;;;;12.77;9.77;;;10.20;87.90;;;;;;5051838;28;20017;-69
2022/12/09 00:25:10;;;;;;;11.07;9.77;;;10.10;87.70;;;;;;5053908;28;20025;-70
2022/12/09 00:27:36;;;;;;;11.05;9.90;;;10.30;87.60;;;;;;5053834;28;20031;-72
2022/12/09 00:30:02;;;;;;;16.65;10.45;;;10.30;87.60;;;;;;5053279;28;20035;-67
2022/12/09 00:32:28;;;;;;;15.27;10.80;;;10.30;87.70;;;;;;5053499;28;20041;-68
2022/12/09 00:34:53;;;;;;;15.48;10.00;;;10.20;87.80;;;;;;5053181;28;20514;-67
2022/12/09 00:37:19;;;;;;;11.60;9.63;;;10.20;87.70;;;;;;5052111;28;20481;-67
2022/12/09 00:39:45;;;;;;;13.13;10.05;;;10.10;87.70;;;;;;5053297;28;20056;-67
2022/12/09 00:42:10;;;;;;;12.70;8.93;;;10.10;87.70;;;;;;5053431;28;20033;-67
2022/12/09 00:44:36;;;;;;;13.98;10.00;;;10.00;87.50;;;;;;5052794;28;20469;-66
2022/12/09 00:47:01;;;;;;;13.90;9.38;;;10.10;87.70;;;;;;5053152;28;20070;-66
2022/12/09 00:49:27;;;;;;;14.60;10.50;;;10.20;87.30;;;;;;5053242;28;20025;-66
2022/12/09 00:51:52;;;;;;;14.98;10.80;;;10.10;87.60;;;;;;5053083;28;20059;-67
2022/12/09 00:54:18;;;;;;;15.13;10.25;;;10.00;87.60;;;;;;5053167;28;20029;-66
2022/12/09 00:56:44;;;;;;;12.95;9.88;;;9.70;87.90;;;;;;5052923;28;20041;-68
2022/12/09 00:59:09;;;;;;;12.25;9.85;;;9.90;87.80;;;;;;5052765;28;20055;-67
2022/12/09 01:01:35;;;;;;;14.98;10.73;;;9.90;88.10;;;;;;5053014;28;20032;-66
2022/12/09 01:04:01;;;;;;;14.02;10.38;;;9.90;88.00;;;;;;5052876;28;20025;-67
2022/12/09 01:06:26;;;;;;;14.00;10.23;;;9.90;88.40;;;;;;5053019;28;20021;-66
2022/12/09 01:08:52;;;;;;;13.57;10.05;;;9.90;87.80;;;;;;5052779;28;20473;-67
2022/12/09 01:11:24;;;;;;;13.82;10.75;;;9.80;87.80;;;;;;5053053;28;20075;-67
2022/12/09 01:13:51;;;;;;;12.50;10.33;;;9.70;87.80;;;;;;5052241;28;20036;-67
2022/12/09 01:16:21;;;;;;;18.05;9.82;;;9.80;88.00;;;;;;5052953;28;20299;-67
2022/12/09 01:18:48;;;;;;;13.38;9.85;;;10.00;87.60;;;;;;5052986;28;20020;-67
2022/12/09 01:21:14;;;;;;;13.30;9.82;;;10.00;87.40;;;;;;5052680;28;20575;-66
2022/12/09 01:23:39;;;;;;;14.32;9.38;;;9.90;87.50;;;;;;5053024;28;20017;-67
2022/12/09 01:26:06;;;;;;;13.15;11.18;;;9.90;87.40;;;;;;5052744;28;20025;-67
2022/12/09 01:28:33;;;;;;;11.07;9.68;;;9.80;87.40;;;;;;5052355;28;20031;-66
2022/12/09 01:31:11;;;;;;;12.60;9.63;;;9.80;87.50;;;;;;5052781;28;20035;-67
2022/12/09 01:33:38;;;;;;;11.82;9.70;;;9.90;88.00;;;;;;5052994;28;20474;-67
2022/12/09 01:36:09;;;;;;;11.27;8.93;;;9.90;87.60;;;;;;5055498;28;20043;-67
2022/12/09 01:38:35;;;;;;;10.82;9.00;;;10.00;87.60;;;;;;5056925;28;20052;-66
2022/12/09 01:41:00;;;;;;;11.18;8.80;;;9.80;87.80;;;;;;5056489;28;20060;-66
2022/12/09 01:43:26;;;;;;;16.20;9.80;;;9.70;88.20;;;;;;5056724;28;20036;-66
2022/12/09 01:45:52;;;;;;;10.73;9.60;;;9.70;88.00;;;;;;5056588;28;20030;-66
2022/12/09 01:48:21;;;;;;;10.80;8.32;;;9.80;87.50;;;;;;5056594;28;20029;-68
2022/12/09 01:50:59;;;;;;;10.60;8.60;;;9.60;87.70;;;;;;5056496;28;20426;-67
2022/12/09 01:53:28;;;;;;;13.90;9.57;;;9.50;87.90;;;;;;5056344;28;20588;-67
2022/12/09 01:55:58;;;;;;;11.43;8.70;;;9.80;87.80;;;;;;5056099;28;20034;-67
2022/12/09 01:58:24;;;;;;;13.40;9.80;;;9.70;87.70;;;;;;5056484;28;20021;-66
2022/12/09 02:00:50;;;;;;;12.20;9.00;;;9.50;87.70;;;;;;5056329;28;20382;-69
2022/12/09 02:03:15;;;;;;;12.20;8.63;;;9.50;88.10;;;;;;5056326;28;20021;-66
2022/12/09 02:05:42;;;;;;;11.38;9.02;;;9.50;88.20;;;;;;5056221;28;20477;-67
2022/12/09 02:08:13;;;;;;;19.45;10.00;;;9.70;87.90;;;;;;5055950;28;20039;-72
2022/12/09 02:11:02;;;;;;;11.48;9.45;;;9.60;88.10;;;;;;5056212;28;20020;-67
2022/12/09 02:13:38;;;;;;;13.00;9.63;;;9.60;87.90;;;;;;5056115;28;20448;-68
2022/12/09 02:16:10;;;;;;;11.50;9.32;;;9.60;88.00;;;;;;5055862;28;20090;-67
2022/12/09 02:18:38;;;;;;;14.95;9.70;;;9.60;87.90;;;;;;5056183;28;20025;-67
2022/12/09 02:21:11;;;;;;;10.90;9.45;;;9.50;88.00;;;;;;5055787;28;20064;-71
2022/12/09 02:23:56;;;;;;;12.80;9.20;;;9.60;87.80;;;;;;5055671;28;20454;-71
2022/12/09 02:26:27;;;;;;;16.60;9.88;;;9.50;87.60;;;;;;5055648;28;20397;-67
2022/12/09 02:29:30;;;;;;;15.07;9.38;;;9.30;88.00;;;;;;5055861;28;20021;-68
2022/12/09 02:32:37;;;;;;;12.48;10.00;;;9.30;88.10;;;;;;5055728;28;20413;-68
2022/12/09 02:35:11;;;;;;;11.80;9.95;;;9.40;88.30;;;;;;5055440;28;20025;-71
2022/12/09 02:37:47;;;;;;;13.68;9.20;;;9.50;87.90;;;;;;5055636;28;20024;-69
2022/12/09 02:40:29;;;;;;;11.45;9.27;;;9.40;87.60;;;;;;5055254;28;20021;-69
2022/12/09 02:42:57;;;;;;;10.43;9.13;;;9.30;87.90;;;;;;5055331;28;20478;-66
2022/12/09 02:45:25;;;;;;;12.70;9.82;;;9.30;87.80;;;;;;5054011;28;20490;-68
2022/12/09 02:47:52;;;;;;;13.68;9.98;;;9.40;87.70;;;;;;5055306;28;20025;-66
2022/12/09 02:50:22;;;;;;;16.30;9.43;;;9.20;88.10;;;;;;5055536;28;20114;-66
2022/12/09 02:52:54;;;;;;;12.23;10.07;;;9.10;88.20;;;;;;5049585;28;20021;-66
2022/12/09 02:55:21;;;;;;;11.13;9.48;;;9.20;88.50;;;;;;5046994;28;20025;-66
2022/12/09 02:57:51;;;;;;;11.23;10.13;;;9.40;88.00;;;;;;5034307;28;20456;-66
2022/12/09 03:00:17;;;;;;;11.45;9.27;;;9.40;88.00;;;;;;5032842;28;20036;-66
2022/12/09 03:02:46;;;;;;;13.38;9.43;;;9.40;87.80;;;;;;5034985;28;20037;-67
2022/12/09 03:05:24;;;;;;;11.13;9.68;;;9.30;87.50;;;;;;5035446;28;20033;-66
2022/12/09 03:07:58;;;;;;;13.23;10.68;;;9.20;87.90;;;;;;5035129;28;20029;-66
2022/12/09 03:10:32;;;;;;;12.00;10.13;;;9.00;88.10;;;;;;5034580;28;20462;-66
2022/12/09 03:13:06;;;;;;;13.63;9.73;;;9.20;88.00;;;;;;5034721;28;20041;-66
2022/12/09 03:15:36;;;;;;;10.77;9.55;;;9.40;88.00;;;;;;5035113;28;20556;-66
2022/12/09 03:18:05;;;;;;;12.63;9.68;;;9.40;87.70;;;;;;5034992;28;20108;-67
2022/12/09 03:20:36;;;;;;;11.90;9.15;;;9.30;87.70;;;;;;5035074;28;20028;-67
2022/12/09 03:23:04;;;;;;;13.35;9.95;;;9.10;88.00;;;;;;5034478;28;20091;-67
2022/12/09 03:25:33;;;;;;;10.52;9.10;;;9.10;87.90;;;;;;5034976;28;20017;-66
2022/12/09 03:28:02;;;;;;;11.00;9.43;;;9.10;87.80;;;;;;5034840;28;20036;-68
2022/12/09 03:30:32;;;;;;;12.82;9.70;;;9.10;87.70;;;;;;5034708;28;20429;-67
2022/12/09 03:32:57;;;;;;;10.40;9.02;;;9.10;88.00;;;;;;5034654;28;20466;-67
2022/12/09 03:35:28;;;;;;;12.50;9.77;;;9.10;87.90;;;;;;5034557;28;20029;-66
2022/12/09 03:37:55;;;;;;;13.88;9.88;;;9.00;88.20;;;;;;5034244;28;20021;-67
2022/12/09 03:40:24;;;;;;;15.52;9.63;;;8.90;88.20;;;;;;5034641;28;20105;-69
2022/12/09 03:42:58;;;;;;;12.38;9.40;;;8.90;88.50;;;;;;5034450;28;20064;-68
2022/12/09 03:45:25;;;;;;;10.77;8.93;;;9.20;88.20;;;;;;5034574;28;20025;-71
2022/12/09 03:47:51;;;;;;;12.50;9.18;;;9.10;88.20;;;;;;5034279;28;20040;-69
2022/12/09 03:50:17;;;;;;;13.35;9.23;;;9.00;88.40;;;;;;5034187;28;20026;-68
2022/12/09 03:53:00;;;;;;;11.30;9.18;;;9.20;88.10;;;;;;5034166;28;20112;-68
2022/12/09 03:55:35;;;;;;;9.85;8.85;;;9.00;88.30;;;;;;5034137;28;20033;-69
2022/12/09 03:58:02;;;;;;;10.18;8.52;;;9.10;88.40;;;;;;5033029;28;20033;-71
2022/12/09 04:00:29;;;;;;;11.63;9.15;;;9.20;88.00;;;;;;5034082;28;20055;-67
2022/12/09 04:02:55;;;;;;;11.15;8.52;;;9.10;88.00;;;;;;5034084;28;20028;-67
2022/12/09 04:05:20;;;;;;;10.98;8.82;;;8.90;88.10;;;;;;5034206;28;20021;-68
2022/12/09 04:07:46;;;;;;;12.13;8.90;;;9.00;88.20;;;;;;5033563;28;20148;-70
2022/12/09 04:10:12;;;;;;;10.15;8.40;;;9.00;88.20;;;;;;5033838;28;20478;-71
2022/12/09 04:12:38;;;;;;;10.73;9.18;;;9.10;88.30;;;;;;5033708;28;20052;-67
2022/12/09 04:15:05;;;;;;;10.93;9.00;;;9.10;88.60;;;;;;5033073;28;20084;-68
2022/12/09 04:17:30;;;;;;;9.88;8.85;;;9.00;88.50;;;;;;5033950;28;20041;-71
2022/12/09 04:19:56;;;;;;;8.90;7.88;;;8.90;88.80;;;;;;5033612;28;20018;-69
2022/12/09 04:22:21;;;;;;;11.55;9.05;;;9.00;88.80;;;;;;5033516;28;20033;-67
2022/12/09 04:24:47;;;;;;;10.70;8.75;;;8.90;88.90;;;;;;5033833;28;20017;-67
2022/12/09 04:27:13;;;;;;;10.15;9.07;;;9.00;88.90;;;;;;5033717;28;20030;-71
2022/12/09 04:29:38;;;;;;;11.70;9.10;;;9.00;88.70;;;;;;5032222;28;20021;-68
2022/12/09 04:32:04;;;;;;;10.15;8.20;;;8.90;89.00;;;;;;5033576;28;20025;-70
2022/12/09 04:34:31;;;;;;;10.90;9.32;;;8.90;88.70;;;;;;5033597;28;20032;-68
2022/12/09 04:36:57;;;;;;;11.65;9.40;;;8.90;88.80;;;;;;5033304;28;20132;-67
2022/12/09 04:39:22;;;;;;;11.50;8.45;;;8.90;88.80;;;;;;5033602;28;20043;-71
2022/12/09 04:41:48;;;;;;;10.25;7.70;;;8.90;88.80;;;;;;5033471;28;20021;-67
2022/12/09 04:44:13;;;;;;;11.32;9.63;;;8.90;88.60;;;;;;5033049;28;20382;-71
2022/12/09 04:46:39;;;;;;;12.38;9.35;;;8.80;88.60;;;;;;5033474;28;20026;-69
2022/12/09 04:49:05;;;;;;;10.48;9.40;;;8.80;88.60;;;;;;5033281;28;20028;-70
2022/12/09 04:51:30;;;;;;;12.18;9.77;;;8.80;88.70;;;;;;5032973;28;20478;-70
2022/12/09 04:53:56;;;;;;;11.18;9.23;;;8.80;88.70;;;;;;5033557;28;20018;-69
2022/12/09 04:56:21;;;;;;;15.25;12.75;;;8.80;88.60;;;;;;5033225;28;20405;-67
2022/12/09 04:58:49;;;;;;;12.25;10.23;;;9.00;88.40;;;;;;5031822;28;20060;-70
2022/12/09 05:01:17;;;;;;;10.60;9.48;;;8.80;88.60;;;;;;5033571;28;20355;-70
2022/12/09 05:03:46;;;;;;;11.32;9.60;;;8.80;88.90;;;;;;5033380;28;20478;-67
2022/12/09 05:06:13;;;;;;;12.02;10.18;;;8.60;89.10;;;;;;5032848;28;20033;-68
2022/12/09 05:08:39;;;;;;;15.23;10.32;;;8.50;89.00;;;;;;5032947;28;20049;-68
2022/12/09 05:11:05;;;;;;;18.40;12.05;;;8.60;89.00;;;;;;5032841;28;20306;-67
2022/12/09 05:13:31;;;;;;;16.33;11.93;;;8.50;89.30;;;;;;5032894;28;20545;-67
2022/12/09 05:16:07;;;;;;;14.70;12.30;;;8.40;88.90;;;;;;5032856;28;20038;-67
2022/12/09 05:18:34;;;;;;;16.92;12.85;;;8.30;89.40;;;;;;5033057;28;20021;-66
2022/12/09 05:21:07;;;;;;;15.82;12.82;;;8.30;89.70;;;;;;5032917;28;20026;-66
2022/12/09 05:23:33;;;;;;;17.30;12.55;;;8.30;90.00;;;;;;5032966;28;20029;-67
2022/12/09 05:26:05;;;;;;;18.10;13.77;;;8.20;90.10;;;;;;5032961;28;20071;-66
2022/12/09 05:28:32;;;;;;;11.23;9.57;;;8.30;90.00;;;;;;5033069;28;20022;-67
2022/12/09 05:31:03;;;;;;;11.70;8.98;;;8.50;92.00;;;;;;5032715;28;20036;-66
2022/12/09 05:33:29;;;;;;;12.75;9.93;;;8.70;92.00;;;;;;5032666;28;20104;-67
2022/12/09 05:35:54;;;;;;;13.95;9.75;;;8.70;91.90;;;;;;5032730;28;20033;-67
2022/12/09 05:38:21;;;;;;;12.77;9.40;;;8.80;91.90;;;;;;5032667;28;20021;-67
2022/12/09 05:40:46;;;;;;;10.93;9.07;;;8.90;91.80;;;;;;5032622;28;20025;-70
2022/12/09 05:43:12;;;;;;;13.50;9.48;;;8.90;91.80;;;;;;5032617;28;20033;-67
2022/12/09 05:45:37;;;;;;;11.15;9.48;;;8.90;91.80;;;;;;5032586;28;20022;-67
2022/12/09 05:48:03;;;;;;;12.55;9.88;;;8.90;91.80;;;;;;5032510;28;20435;-68
2022/12/09 05:50:28;;;;;;;12.13;9.85;;;8.90;91.80;;;;;;5031234;28;20561;-67
2022/12/09 05:52:54;;;;;;;12.35;10.10;;;9.00;92.10;;;;;;5032550;28;20105;-67
2022/12/09 05:55:19;;;;;;;12.35;9.52;;;9.00;91.80;;;;;;5032959;28;20032;-67
2022/12/09 05:57:45;;;;;;;12.45;10.18;;;9.10;91.70;;;;;;5032654;28;20108;-66
2022/12/09 06:00:11;;;;;;;12.80;10.05;;;9.10;91.80;;;;;;5031949;28;20537;-67
2022/12/09 06:02:37;;;;;;;12.80;10.18;;;9.10;91.80;;;;;;5034289;28;20101;-67
2022/12/09 06:05:03;;;;;;;17.48;11.80;;;9.20;91.70;;;;;;5031502;28;20021;-67
2022/12/09 06:07:28;;;;;;;15.18;10.90;;;9.20;91.60;;;;;;5029711;28;20033;-68
2022/12/09 06:09:54;;;;;;;15.00;11.48;;;9.20;91.60;;;;;;5030729;28;20029;-67
2022/12/09 06:12:19;;;;;;;14.68;11.57;;;9.20;91.70;;;;;;5032119;28;20049;-67
2022/12/09 06:14:45;;;;;;;14.20;11.38;;;9.30;91.60;;;;;;5032434;28;20021;-68
2022/12/09 06:17:10;;;;;;;16.83;11.40;;;9.20;91.60;;;;;;5032157;28;20048;-68
2022/12/09 06:19:36;;;;;;;16.17;11.50;;;9.20;91.70;;;;;;5032441;28;20032;-66
2022/12/09 06:22:01;;;;;;;13.20;9.80;;;9.20;91.70;;;;;;5034385;28;20029;-66
2022/12/09 06:24:27;;;;;;;14.57;11.55;;;9.20;91.70;;;;;;5036023;28;20035;-67
2022/12/09 06:26:53;;;;;;;13.07;10.40;;;9.20;91.80;;;;;;5036211;28;20022;-67
2022/12/09 06:29:19;;;;;;;15.23;12.13;;;9.30;91.70;;;;;;5035741;28;20687;-67
2022/12/09 06:31:44;;;;;;;17.38;11.85;;;9.30;91.70;;;;;;5035366;28;20026;-68
2022/12/09 06:34:10;;;;;;;17.80;12.65;;;9.30;91.70;;;;;;5035983;28;20017;-67
2022/12/09 06:36:35;;;;;;;16.02;11.68;;;9.30;91.70;;;;;;5035684;28;20095;-67
2022/12/09 06:39:03;;;;;;;18.70;13.20;;;9.30;91.70;;;;;;5035552;28;20018;-66
2022/12/09 06:41:28;;;;;;;17.77;12.57;;;9.30;91.70;;;;;;5035823;28;20049;-67
2022/12/09 06:43:56;;;;;;;19.48;13.20;;;9.40;91.70;;;;;;5035672;28;20482;-66
2022/12/09 06:46:23;;;;;;;19.45;12.98;;;9.40;91.70;;;;;;5035249;28;20481;-67
2022/12/09 06:48:48;;;;;;;19.55;13.75;;;9.40;91.70;;;;;;5036255;28;20018;-66
2022/12/09 06:51:16;;;;;;;18.50;13.40;;;9.50;91.60;;;;;;5034412;28;20099;-66
2022/12/09 06:53:41;;;;;;;22.42;14.70;;;9.50;91.70;;;;;;5035721;28;20032;-67
2022/12/09 06:56:09;;;;;;;20.58;14.40;;;9.30;91.80;;;;;;5035269;28;20026;-67
2022/12/09 06:58:34;;;;;;;17.48;12.27;;;9.40;91.80;;;;;;5035734;28;20029;-66
2022/12/09 07:01:20;;;;;;;18.10;13.88;;;9.30;91.90;;;;;;5035115;28;20029;-66
2022/12/09 07:03:48;;;;;;;17.85;12.88;;;9.30;92.30;;;;;;5035550;28;20485;-67
2022/12/09 07:06:27;;;;;;;21.15;15.02;;;9.30;92.00;;;;;;5034002;28;20462;-67
2022/12/09 07:08:53;;;;;;;19.95;14.30;;;9.40;91.80;;;;;;5034112;28;20026;-66
2022/12/09 07:11:19;;;;;;;20.95;14.63;;;9.30;91.90;;;;;;5035536;28;20017;-67
2022/12/09 07:13:44;;;;;;;19.58;14.25;;;9.40;91.90;;;;;;5035166;28;20045;-66
2022/12/09 07:16:10;;;;;;;23.85;15.80;;;9.40;91.80;;;;;;5034859;28;20047;-67
2022/12/09 07:18:35;;;;;;;20.83;14.63;;;9.40;91.80;;;;;;5037362;28;20017;-68
2022/12/09 07:21:09;;;;;;;19.77;13.90;;;9.40;91.80;;;;;;5042997;28;20078;-67
2022/12/09 07:23:36;;;;;;;18.75;14.65;;;9.50;91.70;;;;;;5045127;28;20401;-67
2022/12/09 07:26:04;;;;;;;24.80;15.80;;;9.50;91.70;;;;;;5053749;28;20469;-67
2022/12/09 07:28:29;;;;;;;25.38;16.58;;;9.10;91.80;;;;;;5044033;28;20429;-67
2022/12/09 07:30:55;;;;;;;23.60;17.13;;;8.90;92.40;;;;;;5052813;28;20017;-67
2022/12/09 07:33:20;;;;;;;24.70;16.65;;;8.90;92.50;;;;;;5042227;28;20463;-67
2022/12/09 07:35:46;;;;;;;23.20;16.80;;;8.80;92.50;;;;;;5048724;28;20072;-67
2022/12/09 07:38:11;;;;;;;54.15;19.02;;;8.90;92.50;;;;;;5044168;28;20691;-65
2022/12/09 07:40:39;;;;;;;33.50;21.90;;;8.90;92.40;;;;;;5041639;28;20036;-66
2022/12/09 07:43:06;;;;;;;36.33;22.85;;;9.10;91.10;;;;;;5047552;28;20032;-66
2022/12/09 07:45:33;;;;;;;36.75;22.95;;;9.00;90.80;;;;;;5047968;28;20532;-66
2022/12/09 07:47:58;;;;;;;33.95;22.70;;;9.20;90.50;;;;;;5050635;28;20413;-68
2022/12/09 07:50:24;;;;;;;39.97;24.45;;;9.30;90.40;;;;;;5052221;28;20518;-68
2022/12/09 07:52:49;;;;;;;34.88;22.63;;;9.20;90.40;;;;;;5051547;28;20561;-68
2022/12/09 07:55:15;;;;;;;37.10;22.98;;;9.10;90.60;;;;;;5052689;28;20363;-67
2022/12/09 07:57:41;;;;;;;33.45;22.02;;;8.90;90.90;;;;;;5046471;28;20517;-69
2022/12/09 08:00:07;;;;;;;33.25;23.02;;;8.80;91.00;;;;;;5048403;28;20025;-67
2022/12/09 08:02:33;;;;;;;29.60;21.25;;;8.70;91.20;;;;;;5050022;28;20036;-67
2022/12/09 08:04:59;;;;;;;31.35;21.35;;;8.80;91.00;;;;;;5045714;28;20021;-71
2022/12/09 08:07:24;;;;;;;30.83;19.60;;;8.80;91.20;;;;;;5049226;28;20500;-69
2022/12/09 08:09:50;;;;;;;33.97;21.85;;;9.00;91.00;;;;;;5050447;28;20048;-66
2022/12/09 08:12:15;;;;;;;34.97;22.48;;;9.60;91.10;;;;;;5052054;28;20033;-70
2022/12/09 08:14:41;;;;;;;35.03;23.17;;;9.40;90.30;;;;;;5051491;28;20032;-76
2022/12/09 08:17:06;;;;;;;36.53;23.25;;;9.10;90.30;;;;;;5052236;28;20047;-72
2022/12/09 08:19:32;;;;;;;31.73;23.05;;;9.10;90.20;;;;;;5054058;28;20104;-70
2022/12/09 08:21:58;;;;;;;37.10;24.98;;;9.00;90.30;;;;;;5044210;28;20045;-66
2022/12/09 08:24:23;;;;;;;34.42;22.58;;;8.50;90.60;;;;;;5050638;28;20554;-71
2022/12/09 08:26:49;;;;;;;39.85;23.58;;;9.30;90.70;;;;;;5051561;28;20021;-78
2022/12/09 08:29:15;;;;;;;39.15;25.75;;;9.70;90.50;;;;;;5043488;28;20033;-72
2022/12/09 08:31:41;;;;;;;45.00;26.30;;;9.20;90.20;;;;;;5043711;28;20026;-71
2022/12/09 08:34:07;;;;;;;44.65;26.08;;;9.10;90.40;;;;;;5045983;28;20083;-72
2022/12/09 08:36:33;;;;;;;47.40;27.85;;;8.80;90.80;;;;;;5047162;28;20041;-67
2022/12/09 08:39:00;;;;;;;47.83;28.98;;;9.00;90.80;;;;;;5061987;28;20116;-66
2022/12/09 08:41:33;;;;;;;44.38;27.42;;;9.10;90.50;;;;;;5052371;28;20037;-67
2022/12/09 08:44:14;;;;;;;45.38;26.42;;;8.50;91.10;;;;;;5048804;28;20531;-65
2022/12/09 08:46:42;;;;;;;38.92;24.90;;;8.50;91.30;;;;;;5048636;28;20070;-74
2022/12/09 08:49:09;;;;;;;40.08;24.33;;;8.60;91.10;;;;;;5056157;28;20548;-67
2022/12/09 08:51:35;;;;;;;37.88;24.05;;;8.90;90.60;;;;;;5051451;28;20025;-67
2022/12/09 08:54:01;;;;;;;41.88;25.48;;;8.70;90.70;;;;;;5050789;28;20025;-71
2022/12/09 08:56:27;;;;;;;44.42;26.98;;;8.80;90.70;;;;;;5038277;28;20044;-64
2022/12/09 08:58:54;;;;;;;50.13;28.08;;;9.10;90.40;;;;;;5047961;28;20021;-66
2022/12/09 09:01:23;;;;;;;51.22;28.67;;;8.90;90.80;;;;;;5039275;28;20040;-69
2022/12/09 09:03:52;;;;;;;43.72;25.35;;;8.90;90.90;;;;;;5051700;28;20078;-71
2022/12/09 09:06:18;;;;;;;42.42;24.80;;;9.10;90.40;;;;;;5047579;28;20025;-70
2022/12/09 09:08:44;;;;;;;45.38;24.50;;;9.00;90.40;;;;;;5048927;28;20025;-70
2022/12/09 09:11:15;;;;;;;44.33;25.85;;;9.40;90.90;;;;;;5051104;28;20064;-66
2022/12/09 09:13:42;;;;;;;43.28;26.05;;;9.30;90.00;;;;;;5040537;28;20082;-65
2022/12/09 09:16:13;;;;;;;48.67;26.17;;;9.10;90.20;;;;;;5047235;28;20037;-70
2022/12/09 09:18:39;;;;;;;47.85;26.75;;;9.30;90.80;;;;;;5046958;28;20032;-64
2022/12/09 09:21:06;;;;;;;53.80;29.40;;;9.40;90.30;;;;;;5047773;28;20025;-64
2022/12/09 09:23:32;;;;;;;45.90;28.52;;;9.30;90.00;;;;;;5051960;28;20023;-68
2022/12/09 09:25:58;;;;;;;52.58;29.67;;;9.10;90.20;;;;;;5048018;28;20021;-71
2022/12/09 09:28:24;;;;;;;55.60;30.65;;;8.80;90.50;;;;;;5052054;28;20377;-70
2022/12/09 09:31:00;;;;;;;51.53;28.20;;;8.80;90.70;;;;;;5051589;28;20017;-71
2022/12/09 09:33:26;;;;;;;52.28;28.90;;;8.80;90.70;;;;;;5051965;28;20057;-69
2022/12/09 09:35:56;;;;;;;54.78;30.10;;;8.90;90.70;;;;;;5045652;28;20083;-63
2022/12/09 09:38:21;;;;;;;55.28;29.60;;;8.90;90.80;;;;;;5056883;28;20028;-70
2022/12/09 09:40:47;;;;;;;55.00;30.55;;;8.90;90.90;;;;;;5040799;28;20025;-62
2022/12/09 09:43:18;;;;;;;52.08;30.45;;;8.90;91.00;;;;;;5048780;28;20040;-66
2022/12/09 09:45:44;;;;;;;54.35;29.20;;;9.00;90.90;;;;;;5050637;28;20054;-63
2022/12/09 09:48:15;;;;;;;51.90;30.48;;;9.10;90.80;;;;;;5040771;28;20449;-63
2022/12/09 09:51:03;;;;;;;53.27;29.50;;;9.00;91.00;;;;;;5041014;28;20036;-66
2022/12/09 09:53:32;;;;;;;52.15;29.73;;;9.00;91.10;;;;;;5046144;28;20366;-70
2022/12/09 09:56:09;;;;;;;53.45;30.33;;;9.00;91.10;;;;;;5047723;28;20123;-62
2022/12/09 09:58:55;;;;;;;62.17;33.85;;;9.00;91.10;;;;;;5049655;28;20116;-69
2022/12/09 10:01:25;;;;;;;54.92;31.02;;;8.90;91.30;;;;;;5055011;28;20036;-64
2022/12/09 10:04:12;;;;;;;56.38;31.90;;;9.00;91.30;;;;;;5051739;28;20021;-63
2022/12/09 10:07:05;;;;;;;49.13;29.90;;;8.90;91.10;;;;;;5052937;28;20051;-63
2022/12/09 10:10:05;;;;;;;51.80;29.88;;;8.90;91.40;;;;;;5047984;28;20028;-67
2022/12/09 10:12:37;;;;;;;48.42;30.17;;;9.00;91.40;;;;;;5038316;28;20045;-63
2022/12/09 10:15:14;;;;;;;49.08;31.15;;;9.00;90.80;;;;;;5053652;28;20025;-63
2022/12/09 10:17:52;;;;;;;55.35;32.72;;;8.90;90.70;;;;;;5054385;28;20041;-63
2022/12/09 10:20:26;;;;;;;50.03;30.90;;;8.80;90.90;;;;;;5051136;28;20031;-64
2022/12/09 10:23:21;;;;;;;47.85;29.48;;;8.80;91.10;;;;;;5048491;28;20025;-64
2022/12/09 10:25:55;;;;;;;46.78;28.17;;;8.90;91.50;;;;;;5030704;28;20041;-66
2022/12/09 10:28:24;;;;;;;46.95;29.80;;;9.00;90.80;;;;;;5049713;28;20025;-63
2022/12/09 10:30:51;;;;;;;43.72;29.10;;;8.90;90.60;;;;;;5053199;28;20071;-65
2022/12/09 10:33:23;;;;;;;50.97;29.33;;;9.00;90.80;;;;;;5051518;28;20448;-65
2022/12/09 10:35:49;;;;;;;50.03;31.08;;;8.90;91.10;;;;;;5054209;28;20045;-66
2022/12/09 10:38:17;;;;;;;47.47;29.00;;;9.10;90.70;;;;;;5044498;28;20084;-65
2022/12/09 10:40:45;;;;;;;46.47;27.17;;;8.90;90.90;;;;;;5044752;28;20060;-65
2022/12/09 10:43:36;;;;;;;44.38;26.73;;;8.90;91.00;;;;;;5044847;28;20025;-64
2022/12/09 10:46:23;;;;;;;45.55;26.70;;;9.00;90.90;;;;;;5046684;28;20040;-64
2022/12/09 10:48:48;;;;;;;43.78;24.77;;;8.80;91.20;;;;;;5046816;28;20393;-63
2022/12/09 10:51:17;;;;;;;39.50;27.55;;;8.90;91.10;;;;;;5048643;28;20535;-66
2022/12/09 10:53:52;;;;;;;47.05;27.38;;;9.20;90.10;;;;;;5048250;28;20028;-66
2022/12/09 10:56:24;;;;;;;48.67;28.10;;;9.00;90.50;;;;;;5054256;28;20033;-66
2022/12/09 10:59:16;;;;;;;47.08;26.80;;;8.90;91.10;;;;;;5053515;28;20017;-65
2022/12/09 11:02:02;;;;;;;41.90;26.13;;;8.90;91.30;;;;;;5050368;28;20052;-64
2022/12/09 11:04:39;;;;;;;47.08;30.38;;;9.20;90.20;;;;;;5048116;28;20431;-64
2022/12/09 11:07:10;;;;;;;48.42;28.92;;;9.00;90.30;;;;;;5053167;28;20112;-63
2022/12/09 11:09:39;;;;;;;49.73;31.17;;;9.00;90.80;;;;;;5052315;28;20037;-65
2022/12/09 11:12:15;;;;;;;50.67;29.90;;;8.80;90.90;;;;;;5051411;28;20291;-69
2022/12/09 11:14:50;;;;;;;47.38;29.83;;;8.80;92.30;;;;;;5051979;28;20041;-65
2022/12/09 11:17:29;;;;;;;47.47;28.63;;;8.90;91.50;;;;;;5049835;28;20025;-65
2022/12/09 11:20:03;;;;;;;46.92;30.45;;;9.00;91.50;;;;;;5050112;28;20485;-64
2022/12/09 11:22:37;;;;;;;48.88;30.02;;;9.10;91.30;;;;;;5049407;28;20048;-66
2022/12/09 11:25:22;;;;;;;52.47;31.42;;;9.20;91.40;;;;;;5052449;28;20021;-65
2022/12/09 11:27:58;;;;;;;51.10;31.20;;;9.10;91.80;;;;;;5048423;28;20370;-65
2022/12/09 11:30:25;;;;;;;50.92;30.58;;;9.10;91.80;;;;;;5043333;28;20405;-64
2022/12/09 11:32:55;;;;;;;48.63;30.65;;;9.30;91.60;;;;;;5045164;28;20160;-63
2022/12/09 11:35:44;;;;;;;47.63;31.08;;;9.30;91.40;;;;;;5046745;28;20281;-66
2022/12/09 11:38:31;;;;;;;46.85;29.17;;;9.40;91.00;;;;;;5037533;28;20040;-65
2022/12/09 11:41:05;;;;;;;54.55;31.73;;;9.40;91.00;;;;;;5044481;28;20080;-65
2022/12/09 11:43:42;;;;;;;51.75;31.80;;;9.30;90.90;;;;;;5047187;28;20021;-63
2022/12/09 11:46:13;;;;;;;51.35;32.85;;;9.30;90.80;;;;;;5041546;28;20216;-63
2022/12/09 11:48:41;;;;;;;51.83;32.90;;;9.30;90.40;;;;;;5044789;28;20973;-65
2022/12/09 11:51:37;;;;;;;51.83;33.10;;;9.40;90.40;;;;;;5051941;28;20477;-65
2022/12/09 11:54:36;;;;;;;48.88;30.15;;;9.40;90.10;;;;;;5048228;28;20719;-66
2022/12/09 11:57:04;;;;;;;53.63;31.33;;;9.30;90.50;;;;;;5048192;28;20040;-66
2022/12/09 11:59:35;;;;;;;54.22;32.13;;;9.30;90.30;;;;;;5052593;28;20032;-65
2022/12/09 12:02:13;;;;;;;53.03;29.42;;;9.30;90.00;;;;;;5050213;28;20029;-63
2022/12/09 12:04:54;;;;;;;53.78;32.33;;;9.20;90.80;;;;;;5051405;28;20029;-65
2022/12/09 12:07:49;;;;;;;68.40;35.03;;;9.40;90.80;;;;;;5039858;28;20107;-67
2022/12/09 12:10:26;;;;;;;60.55;33.70;;;9.40;90.70;;;;;;5048312;28;20032;-66
2022/12/09 12:13:18;;;;;;;72.65;34.20;;;9.10;91.20;;;;;;5050278;28;20036;-67
2022/12/09 12:16:10;;;;;;;76.28;35.60;;;9.40;91.20;;;;;;5039891;28;20195;-67
2022/12/09 12:18:59;;;;;;;;;;;9.40;91.80;;;;;;5049360;28;20021;-66
2022/12/09 12:21:27;;;;;;;59.40;31.27;;;9.10;92.10;;;;;;5046482;28;19912;-65
2022/12/09 12:24:11;;;;;;;49.00;32.42;;;9.10;91.90;;;;;;5047438;28;20076;-66
2022/12/09 12:26:55;;;;;;;69.28;28.90;;;9.40;90.30;;;;;;5047205;28;20178;-65
2022/12/09 12:29:28;;;;;;;61.03;31.05;;;9.20;94.10;;;;;;5033702;28;20064;-66
2022/12/09 12:32:05;;;;;;;53.80;34.47;;;9.60;92.50;;;;;;5040003;28;20028;-65
2022/12/09 12:34:37;;;;;;;62.75;34.03;;;9.60;90.70;;;;;;5037396;28;20030;-66
2022/12/09 12:37:21;;;;;;;52.17;32.90;;;9.60;90.40;;;;;;5049260;28;20040;-65
2022/12/09 12:40:08;;;;;;;51.20;31.83;;;9.60;90.30;;;;;;5046199;28;20036;-64
2022/12/09 12:48:47;;;;;;;42.55;30.35;;;9.60;90.00;;;;;;5043880;28;20571;-65
2022/12/09 12:51:28;;;;;;;43.28;29.38;;;9.50;89.40;;;;;;5043394;28;20028;-64
2022/12/09 12:54:15;;;;;;;49.10;31.00;;;9.40;89.10;;;;;;5048474;28;20032;-65
2022/12/09 12:56:48;;;;;;;46.50;30.88;;;9.30;89.80;;;;;;5051788;28;20497;-70
2022/12/09 12:59:46;;;;;;;45.17;30.65;;;9.30;90.20;;;;;;5046002;28;20025;-64
2022/12/09 13:02:29;;;;;;;44.45;29.42;;;9.30;90.10;;;;;;5043851;28;20037;-67